Dieses Jahr (2019) konnten wir eine sehr erfolgreiche Flugausbildung durchführen.
Drei Flugschüler haben ihren ersten Alleinflug gemacht und somit den ersten Ausbildungsabschnitt beendet.
Auch im Bereich Motorflug hat sich etwas getan. Bernd Ewert hat seine Klassenberechtigung TMG (Motorsegler) erworben.

Herzlichen Glückwunsch !!

 

Alleinflug von Florian Götzl am 30. März 2019



Alleinflug von Claus Scholz (rechts) am 05. Mai 2019



Alleinflug von Fabian Kälberer am 30. Juni 2019



Fluglehrer (links) und Flugschüler

WebCam

  
Kamera Halle
Kamera Vorfeld



AeroClub Göppingen-Salach e.V.
Ausrichter der Modellflug
GPS Triangle-WM 2021

 

Wetter EDDS

METAR

EDDS 160550Z 26004KT 9999 FEW009 BKN038 M02/M03 Q1026 NOSIG =
EDDS 160500Z 1606/1706 23004KT 9999 BKN035 BECMG 1623/1702 4000 -SN BKN010 TEMPO 1700/1706 2000 SN BKN004


TAF

EDDS 160500Z 1606/1706 23004KT 9999 BKN035 BECMG 1623/1702 4000 -SN BKN010 TEMPO 1700/1706 2000 SN BKN004 =


SR/SS

07:07 / 15:54 UTC
(EDSO 16-01-2021)